sensor_id;sensor_type;location;lat;lon;timestamp;pressure;altitude;pressure_sealevel;temperature
66113;BMP280;52893;52.870;5.822;2023-02-28T00:00:50;103237.88;;;6.14
66113;BMP280;52893;52.870;5.822;2023-02-28T00:03:19;103226.66;;;6.11
66113;BMP280;52893;52.870;5.822;2023-02-28T00:05:46;103235.06;;;6.21
66113;BMP280;52893;52.870;5.822;2023-02-28T00:08:13;103235.63;;;6.23
66113;BMP280;52893;52.870;5.822;2023-02-28T00:10:41;103227.25;;;6.24
66113;BMP280;52893;52.870;5.822;2023-02-28T00:13:08;103223.94;;;6.22
66113;BMP280;52893;52.870;5.822;2023-02-28T00:15:35;103229.84;;;6.19
66113;BMP280;52893;52.870;5.822;2023-02-28T00:18:03;103225.25;;;6.20
66113;BMP280;52893;52.870;5.822;2023-02-28T00:20:31;103214.84;;;6.17
66113;BMP280;52893;52.870;5.822;2023-02-28T00:22:58;103211.69;;;6.20
66113;BMP280;52893;52.870;5.822;2023-02-28T00:25:25;103215.22;;;6.20
66113;BMP280;52893;52.870;5.822;2023-02-28T00:27:53;103176.06;;;5.93
66113;BMP280;52893;52.870;5.822;2023-02-28T00:30:21;103215.59;;;6.24
66113;BMP280;52893;52.870;5.822;2023-02-28T00:32:50;103230.56;;;6.26
66113;BMP280;52893;52.870;5.822;2023-02-28T00:35:18;103222.78;;;6.30
66113;BMP280;52893;52.870;5.822;2023-02-28T00:37:47;103212.75;;;6.30
66113;BMP280;52893;52.870;5.822;2023-02-28T00:40:15;103206.03;;;6.33
66113;BMP280;52893;52.870;5.822;2023-02-28T00:42:42;103209.56;;;6.33
66113;BMP280;52893;52.870;5.822;2023-02-28T00:45:09;103200.13;;;6.36
66113;BMP280;52893;52.870;5.822;2023-02-28T00:47:37;103198.25;;;6.37
66113;BMP280;52893;52.870;5.822;2023-02-28T00:50:06;103203.69;;;6.37
66113;BMP280;52893;52.870;5.822;2023-02-28T00:52:33;103195.09;;;6.40
66113;BMP280;52893;52.870;5.822;2023-02-28T00:55:01;103201.09;;;6.42
66113;BMP280;52893;52.870;5.822;2023-02-28T00:57:29;103197.56;;;6.41
66113;BMP280;52893;52.870;5.822;2023-02-28T00:59:56;103192.38;;;6.40
66113;BMP280;52893;52.870;5.822;2023-02-28T01:02:23;103196.97;;;6.39
66113;BMP280;52893;52.870;5.822;2023-02-28T01:04:52;103189.28;;;6.36
66113;BMP280;52893;52.870;5.822;2023-02-28T01:07:19;103203.69;;;6.37
66113;BMP280;52893;52.870;5.822;2023-02-28T01:09:46;103205.13;;;6.39
66113;BMP280;52893;52.870;5.822;2023-02-28T01:12:15;103208.66;;;6.40
66113;BMP280;52893;52.870;5.822;2023-02-28T01:14:42;103209.22;;;6.42
66113;BMP280;52893;52.870;5.822;2023-02-28T01:17:10;103216.06;;;6.44
66113;BMP280;52893;52.870;5.822;2023-02-28T01:19:37;103216.44;;;6.48
66113;BMP280;52893;52.870;5.822;2023-02-28T01:22:05;103214.31;;;6.50
66113;BMP280;52893;52.870;5.822;2023-02-28T01:24:34;103222.19;;;6.51
66113;BMP280;52893;52.870;5.822;2023-02-28T01:27:02;103216.53;;;6.53
66113;BMP280;52893;52.870;5.822;2023-02-28T01:29:30;103209.00;;;6.55
66113;BMP280;52893;52.870;5.822;2023-02-28T01:31:57;103220.44;;;6.57
66113;BMP280;52893;52.870;5.822;2023-02-28T01:34:26;103208.75;;;6.56
66113;BMP280;52893;52.870;5.822;2023-02-28T01:36:53;103210.66;;;6.56
66113;BMP280;52893;52.870;5.822;2023-02-28T01:39:20;103208.75;;;6.56
66113;BMP280;52893;52.870;5.822;2023-02-28T01:41:49;103203.81;;;6.53
66113;BMP280;52893;52.870;5.822;2023-02-28T01:44:59;103194.50;;;6.49
66113;BMP280;52893;52.870;5.822;2023-02-28T01:47:29;103183.50;;;6.44
66113;BMP280;52893;52.870;5.822;2023-02-28T01:49:58;103183.41;;;6.39
66113;BMP280;52893;52.870;5.822;2023-02-28T01:52:26;103172.19;;;6.36
66113;BMP280;52893;52.870;5.822;2023-02-28T01:54:55;103176.56;;;6.37
66113;BMP280;52893;52.870;5.822;2023-02-28T01:57:27;103181.75;;;6.38
66113;BMP280;52893;52.870;5.822;2023-02-28T02:00:01;103174.22;;;6.40
66113;BMP280;52893;52.870;5.822;2023-02-28T02:02:40;103178.06;;;6.44
66113;BMP280;52893;52.870;5.822;2023-02-28T02:05:11;103179.72;;;6.45
66113;BMP280;52893;52.870;5.822;2023-02-28T02:07:41;103180.31;;;6.47
66113;BMP280;52893;52.870;5.822;2023-02-28T02:10:12;103183.38;;;6.51
66113;BMP280;52893;52.870;5.822;2023-02-28T02:13:00;103170.41;;;6.53
66113;BMP280;52893;52.870;5.822;2023-02-28T02:15:34;103176.44;;;6.55
66113;BMP280;52893;52.870;5.822;2023-02-28T02:18:06;103171.25;;;6.53
66113;BMP280;52893;52.870;5.822;2023-02-28T02:21:08;103156.25;;;6.51
66113;BMP280;52893;52.870;5.822;2023-02-28T02:23:52;103161.09;;;6.49
66113;BMP280;52893;52.870;5.822;2023-02-28T02:26:44;103161.66;;;6.51
66113;BMP280;52893;52.870;5.822;2023-02-28T02:29:40;103147.31;;;6.50
66113;BMP280;52893;52.870;5.822;2023-02-28T02:32:49;103160.03;;;6.50
66113;BMP280;52893;52.870;5.822;2023-02-28T02:35:28;103164.16;;;6.52
66113;BMP280;52893;52.870;5.822;2023-02-28T02:38:05;103157.44;;;6.55
66113;BMP280;52893;52.870;5.822;2023-02-28T02:40:38;103154.22;;;6.58
66113;BMP280;52893;52.870;5.822;2023-02-28T02:43:14;103162.38;;;6.58
66113;BMP280;52893;52.870;5.822;2023-02-28T02:45:45;103162.03;;;6.54
66113;BMP280;52893;52.870;5.822;2023-02-28T02:48:17;103165.81;;;6.53
66113;BMP280;52893;52.870;5.822;2023-02-28T02:50:50;103169.13;;;6.55
66113;BMP280;52893;52.870;5.822;2023-02-28T02:53:22;103169.59;;;6.52
66113;BMP280;52893;52.870;5.822;2023-02-28T02:55:52;103169.13;;;6.55
66113;BMP280;52893;52.870;5.822;2023-02-28T02:58:24;103164.53;;;6.56
66113;BMP280;52893;52.870;5.822;2023-02-28T03:00:53;103157.19;;;6.56
66113;BMP280;52893;52.870;5.822;2023-02-28T03:03:22;103153.19;;;6.59
66113;BMP280;52893;52.870;5.822;2023-02-28T03:05:57;103164.84;;;6.59
66113;BMP280;52893;52.870;5.822;2023-02-28T03:08:26;103164.38;;;6.62
66113;BMP280;52893;52.870;5.822;2023-02-28T03:10:57;103163.53;;;6.62
66113;BMP280;52893;52.870;5.822;2023-02-28T03:13:49;103164.38;;;6.62
66113;BMP280;52893;52.870;5.822;2023-02-28T03:16:28;103165.69;;;6.60
66113;BMP280;52893;52.870;5.822;2023-02-28T03:19:03;103166.47;;;6.60
66113;BMP280;52893;52.870;5.822;2023-02-28T03:21:39;103154.84;;;6.60
66113;BMP280;52893;52.870;5.822;2023-02-28T03:24:10;103156.13;;;6.57
66113;BMP280;52893;52.870;5.822;2023-02-28T03:26:42;103161.53;;;6.57
66113;BMP280;52893;52.870;5.822;2023-02-28T03:29:16;103167.81;;;6.58
66113;BMP280;52893;52.870;5.822;2023-02-28T03:31:48;103151.19;;;6.54
66113;BMP280;52893;52.870;5.822;2023-02-28T03:34:22;103157.44;;;6.55
66113;BMP280;52893;52.870;5.822;2023-02-28T03:36:53;103167.94;;;6.51
66113;BMP280;52893;52.870;5.822;2023-02-28T03:39:25;103163.44;;;6.45
66113;BMP280;52893;52.870;5.822;2023-02-28T03:41:59;103163.34;;;6.40
66113;BMP280;52893;52.870;5.822;2023-02-28T03:44:30;103160.03;;;6.38
66113;BMP280;52893;52.870;5.822;2023-02-28T03:47:02;103152.03;;;6.31
66113;BMP280;52893;52.870;5.822;2023-02-28T03:49:32;103152.84;;;6.20
66113;BMP280;52893;52.870;5.822;2023-02-28T03:52:06;103151.19;;;6.08
66113;BMP280;52893;52.870;5.822;2023-02-28T03:54:37;103151.31;;;6.01
66113;BMP280;52893;52.870;5.822;2023-02-28T03:57:07;103144.34;;;5.94
66113;BMP280;52893;52.870;5.822;2023-02-28T03:59:42;103147.50;;;5.90
66113;BMP280;52893;52.870;5.822;2023-02-28T04:02:11;103143.63;;;5.86
66113;BMP280;52893;52.870;5.822;2023-02-28T04:04:38;103155.28;;;5.87
66113;BMP280;52893;52.870;5.822;2023-02-28T04:07:15;103147.97;;;5.87
66113;BMP280;52893;52.870;5.822;2023-02-28T04:09:43;103137.25;;;5.81
66113;BMP280;52893;52.870;5.822;2023-02-28T04:12:10;103152.06;;;5.78
66113;BMP280;52893;52.870;5.822;2023-02-28T04:14:38;103150.31;;;5.72
66113;BMP280;52893;52.870;5.822;2023-02-28T04:17:05;103157.56;;;5.60
66113;BMP280;52893;52.870;5.822;2023-02-28T04:19:32;103153.63;;;5.44
66113;BMP280;52893;52.870;5.822;2023-02-28T04:21:59;103166.31;;;5.32
66113;BMP280;52893;52.870;5.822;2023-02-28T04:24:28;103161.88;;;5.20
66113;BMP280;52893;52.870;5.822;2023-02-28T04:26:56;103158.53;;;5.06
66113;BMP280;52893;52.870;5.822;2023-02-28T04:29:26;103165.50;;;4.95
66113;BMP280;52893;52.870;5.822;2023-02-28T04:31:54;103162.53;;;4.85
66113;BMP280;52893;52.870;5.822;2023-02-28T04:34:24;103166.34;;;4.78
66113;BMP280;52893;52.870;5.822;2023-02-28T04:36:52;103163.75;;;4.71
66113;BMP280;52893;52.870;5.822;2023-02-28T04:39:20;103167.31;;;4.65
66113;BMP280;52893;52.870;5.822;2023-02-28T04:41:49;103170.91;;;4.59
66113;BMP280;52893;52.870;5.822;2023-02-28T04:44:16;103161.34;;;4.56
66113;BMP280;52893;52.870;5.822;2023-02-28T04:46:44;103163.09;;;4.51
66113;BMP280;52893;52.870;5.822;2023-02-28T04:49:11;103172.69;;;4.47
66113;BMP280;52893;52.870;5.822;2023-02-28T04:51:39;103167.72;;;4.44
66113;BMP280;52893;52.870;5.822;2023-02-28T04:54:06;103165.47;;;4.41
66113;BMP280;52893;52.870;5.822;2023-02-28T04:56:34;103176.13;;;4.36
66113;BMP280;52893;52.870;5.822;2023-02-28T04:59:02;103175.97;;;4.31
66113;BMP280;52893;52.870;5.822;2023-02-28T05:01:31;103183.06;;;4.25
66113;BMP280;52893;52.870;5.822;2023-02-28T05:04:01;103176.88;;;4.18
66113;BMP280;52893;52.870;5.822;2023-02-28T05:06:30;103181.13;;;4.07
66113;BMP280;52893;52.870;5.822;2023-02-28T05:08:57;103181.41;;;3.99
66113;BMP280;52893;52.870;5.822;2023-02-28T05:11:26;103187.91;;;3.92
66113;BMP280;52893;52.870;5.822;2023-02-28T05:13:55;103185.25;;;3.85
66113;BMP280;52893;52.870;5.822;2023-02-28T05:16:23;103182.34;;;3.80
66113;BMP280;52893;52.870;5.822;2023-02-28T05:18:51;103186.56;;;3.76
66113;BMP280;52893;52.870;5.822;2023-02-28T05:21:25;103181.81;;;3.71
66113;BMP280;52893;52.870;5.822;2023-02-28T05:23:53;103181.44;;;3.68
66113;BMP280;52893;52.870;5.822;2023-02-28T05:26:20;103180.59;;;3.61
66113;BMP280;52893;52.870;5.822;2023-02-28T05:28:48;103182.09;;;3.57
66113;BMP280;52893;52.870;5.822;2023-02-28T05:31:15;103178.97;;;3.53
66113;BMP280;52893;52.870;5.822;2023-02-28T05:33:44;103179.06;;;3.46
66113;BMP280;52893;52.870;5.822;2023-02-28T05:36:11;103169.91;;;3.41
66113;BMP280;52893;52.870;5.822;2023-02-28T05:38:38;103169.72;;;3.36
66113;BMP280;52893;52.870;5.822;2023-02-28T05:41:07;103168.69;;;3.30
66113;BMP280;52893;52.870;5.822;2023-02-28T05:43:35;103170.81;;;3.28
66113;BMP280;52893;52.870;5.822;2023-02-28T05:46:03;103174.94;;;3.24
66113;BMP280;52893;52.870;5.822;2023-02-28T05:48:31;103181.38;;;3.23
66113;BMP280;52893;52.870;5.822;2023-02-28T05:51:00;103174.59;;;3.21
66113;BMP280;52893;52.870;5.822;2023-02-28T05:53:28;103180.41;;;3.18
66113;BMP280;52893;52.870;5.822;2023-02-28T05:55:58;103178.13;;;3.15
66113;BMP280;52893;52.870;5.822;2023-02-28T05:58:26;103169.19;;;3.14
66113;BMP280;52893;52.870;5.822;2023-02-28T06:00:56;103170.44;;;3.12
66113;BMP280;52893;52.870;5.822;2023-02-28T06:03:24;103163.81;;;3.07
66113;BMP280;52893;52.870;5.822;2023-02-28T06:05:51;103174.41;;;3.09
66113;BMP280;52893;52.870;5.822;2023-02-28T06:08:19;103168.38;;;3.07
66113;BMP280;52893;52.870;5.822;2023-02-28T06:10:47;103175.66;;;3.06
66113;BMP280;52893;52.870;5.822;2023-02-28T06:13:14;103173.78;;;3.07
66113;BMP280;52893;52.870;5.822;2023-02-28T06:15:42;103179.19;;;3.07
66113;BMP280;52893;52.870;5.822;2023-02-28T06:18:09;103172.75;;;3.08
66113;BMP280;52893;52.870;5.822;2023-02-28T06:20:37;103179.19;;;3.07
66113;BMP280;52893;52.870;5.822;2023-02-28T06:23:04;103172.97;;;3.06
66113;BMP280;52893;52.870;5.822;2023-02-28T06:25:32;103179.59;;;3.04
66113;BMP280;52893;52.870;5.822;2023-02-28T06:28:00;103176.28;;;3.02
66113;BMP280;52893;52.870;5.822;2023-02-28T06:30:27;103181.06;;;3.00
66113;BMP280;52893;52.870;5.822;2023-02-28T06:32:56;103185.22;;;2.96
66113;BMP280;52893;52.870;5.822;2023-02-28T06:35:24;103189.19;;;2.93
66113;BMP280;52893;52.870;5.822;2023-02-28T06:37:51;103192.94;;;2.92
66113;BMP280;52893;52.870;5.822;2023-02-28T06:40:18;103192.53;;;2.89
66113;BMP280;52893;52.870;5.822;2023-02-28T06:42:47;103195.00;;;2.84
66113;BMP280;52893;52.870;5.822;2023-02-28T06:45:14;103193.78;;;2.80
66113;BMP280;52893;52.870;5.822;2023-02-28T06:47:41;103198.75;;;2.76
66113;BMP280;52893;52.870;5.822;2023-02-28T06:50:10;103197.53;;;2.72
66113;BMP280;52893;52.870;5.822;2023-02-28T06:52:38;103208.50;;;2.71
66113;BMP280;52893;52.870;5.822;2023-02-28T06:55:07;103205.81;;;2.71
66113;BMP280;52893;52.870;5.822;2023-02-28T06:57:35;103215.78;;;2.70
66113;BMP280;52893;52.870;5.822;2023-02-28T07:00:06;103211.84;;;2.73
66113;BMP280;52893;52.870;5.822;2023-02-28T07:02:34;103215.75;;;2.77
66113;BMP280;52893;52.870;5.822;2023-02-28T07:05:02;103221.59;;;2.80
66113;BMP280;52893;52.870;5.822;2023-02-28T07:07:30;103212.84;;;2.85
66113;BMP280;52893;52.870;5.822;2023-02-28T07:09:58;103222.81;;;2.91
66113;BMP280;52893;52.870;5.822;2023-02-28T07:12:25;103218.88;;;2.93
66113;BMP280;52893;52.870;5.822;2023-02-28T07:14:52;103225.28;;;2.99
66113;BMP280;52893;52.870;5.822;2023-02-28T07:17:21;103236.47;;;3.02
66113;BMP280;52893;52.870;5.822;2023-02-28T07:19:48;103236.06;;;3.05
66113;BMP280;52893;52.870;5.822;2023-02-28T07:22:15;103237.72;;;3.06
66113;BMP280;52893;52.870;5.822;2023-02-28T07:24:43;103243.94;;;3.07
66113;BMP280;52893;52.870;5.822;2023-02-28T07:27:10;103240.63;;;3.05
66113;BMP280;52893;52.870;5.822;2023-02-28T07:29:37;103236.88;;;3.06
66113;BMP280;52893;52.870;5.822;2023-02-28T07:32:04;103239.59;;;3.06
66113;BMP280;52893;52.870;5.822;2023-02-28T07:34:33;103243.31;;;3.05
66113;BMP280;52893;52.870;5.822;2023-02-28T07:37:00;103244.34;;;3.04
66113;BMP280;52893;52.870;5.822;2023-02-28T07:39:29;103247.06;;;3.04
66113;BMP280;52893;52.870;5.822;2023-02-28T07:41:56;103246.66;;;3.07
66113;BMP280;52893;52.870;5.822;2023-02-28T07:44:25;103256.41;;;3.08
66113;BMP280;52893;52.870;5.822;2023-02-28T07:46:53;103255.56;;;3.07
66113;BMP280;52893;52.870;5.822;2023-02-28T07:49:20;103241.44;;;3.05
66113;BMP280;52893;52.870;5.822;2023-02-28T07:51:48;103248.72;;;3.05
66113;BMP280;52893;52.870;5.822;2023-02-28T07:54:15;103249.16;;;3.08
66113;BMP280;52893;52.870;5.822;2023-02-28T07:56:43;103248.50;;;3.13
66113;BMP280;52893;52.870;5.822;2023-02-28T07:59:10;103241.66;;;3.17
66113;BMP280;52893;52.870;5.822;2023-02-28T08:01:37;103243.47;;;3.23
66113;BMP280;52893;52.870;5.822;2023-02-28T08:04:04;103247.44;;;3.27
66113;BMP280;52893;52.870;5.822;2023-02-28T08:06:32;103246.38;;;3.28
66113;BMP280;52893;52.870;5.822;2023-02-28T08:09:00;103238.69;;;3.32
66113;BMP280;52893;52.870;5.822;2023-02-28T08:11:27;103238.47;;;3.33
66113;BMP280;52893;52.870;5.822;2023-02-28T08:13:55;103242.84;;;3.34
66113;BMP280;52893;52.870;5.822;2023-02-28T08:16:22;103246.38;;;3.35
66113;BMP280;52893;52.870;5.822;2023-02-28T08:18:50;103249.91;;;3.35
66113;BMP280;52893;52.870;5.822;2023-02-28T08:21:18;103249.69;;;3.37
66113;BMP280;52893;52.870;5.822;2023-02-28T08:23:46;103248.44;;;3.39
66113;BMP280;52893;52.870;5.822;2023-02-28T08:26:15;103254.66;;;3.46
66113;BMP280;52893;52.870;5.822;2023-02-28T08:28:43;103259.19;;;3.53
66113;BMP280;52893;52.870;5.822;2023-02-28T08:31:13;103255.84;;;3.57
66113;BMP280;52893;52.870;5.822;2023-02-28T08:33:41;103268.69;;;3.62
66113;BMP280;52893;52.870;5.822;2023-02-28T08:36:10;103261.44;;;3.62
66113;BMP280;52893;52.870;5.822;2023-02-28T08:38:38;103264.09;;;3.69
66113;BMP280;52893;52.870;5.822;2023-02-28T08:41:06;103255.78;;;3.70
66113;BMP280;52893;52.870;5.822;2023-02-28T08:43:36;103263.69;;;3.72
66113;BMP280;52893;52.870;5.822;2023-02-28T08:46:03;103264.06;;;3.75
66113;BMP280;52893;52.870;5.822;2023-02-28T08:48:32;103262.59;;;3.79
66113;BMP280;52893;52.870;5.822;2023-02-28T08:51:02;103264.47;;;3.85
66113;BMP280;52893;52.870;5.822;2023-02-28T08:53:29;103257.34;;;3.91
66113;BMP280;52893;52.870;5.822;2023-02-28T08:55:58;103265.03;;;3.94
66113;BMP280;52893;52.870;5.822;2023-02-28T08:58:25;103269.75;;;3.99
66113;BMP280;52893;52.870;5.822;2023-02-28T09:00:54;103267.25;;;4.04
66113;BMP280;52893;52.870;5.822;2023-02-28T09:03:21;103265.97;;;4.13
66113;BMP280;52893;52.870;5.822;2023-02-28T09:05:54;103271.72;;;4.23
66113;BMP280;52893;52.870;5.822;2023-02-28T09:08:21;103270.44;;;4.25
66113;BMP280;52893;52.870;5.822;2023-02-28T09:10:48;103270.78;;;4.36
66113;BMP280;52893;52.870;5.822;2023-02-28T09:13:16;103272.97;;;4.52
66113;BMP280;52893;52.870;5.822;2023-02-28T09:15:43;103275.75;;;4.63
66113;BMP280;52893;52.870;5.822;2023-02-28T09:18:12;103269.28;;;4.71
66113;BMP280;52893;52.870;5.822;2023-02-28T09:20:40;103270.34;;;4.88
66113;BMP280;52893;52.870;5.822;2023-02-28T09:23:09;103278.50;;;5.06
66113;BMP280;52893;52.870;5.822;2023-02-28T09:25:37;103274.22;;;5.17
66113;BMP280;52893;52.870;5.822;2023-02-28T09:28:04;103278.78;;;5.17
66113;BMP280;52893;52.870;5.822;2023-02-28T09:30:31;103277.06;;;5.22
66113;BMP280;52893;52.870;5.822;2023-02-28T09:32:58;103276.53;;;5.32
66113;BMP280;52893;52.870;5.822;2023-02-28T09:35:27;103279.84;;;5.34
66113;BMP280;52893;52.870;5.822;2023-02-28T09:37:54;103276.91;;;5.35
66113;BMP280;52893;52.870;5.822;2023-02-28T09:40:24;103273.59;;;5.33
66113;BMP280;52893;52.870;5.822;2023-02-28T09:42:53;103274.44;;;5.34
66113;BMP280;52893;52.870;5.822;2023-02-28T09:45:24;103285.25;;;5.34
66113;BMP280;52893;52.870;5.822;2023-02-28T09:47:54;103283.59;;;5.33
66113;BMP280;52893;52.870;5.822;2023-02-28T09:50:31;103282.22;;;5.42
66113;BMP280;52893;52.870;5.822;2023-02-28T09:53:04;103282.09;;;5.55
66113;BMP280;52893;52.870;5.822;2023-02-28T09:55:36;103292.44;;;5.58
66113;BMP280;52893;52.870;5.822;2023-02-28T09:58:04;103293.66;;;5.62
66113;BMP280;52893;52.870;5.822;2023-02-28T10:00:34;103287.19;;;5.63
66113;BMP280;52893;52.870;5.822;2023-02-28T10:03:24;103292.44;;;5.58
66113;BMP280;52893;52.870;5.822;2023-02-28T10:05:59;103286.91;;;5.53
66113;BMP280;52893;52.870;5.822;2023-02-28T10:08:32;103283.16;;;5.54
66113;BMP280;52893;52.870;5.822;2023-02-28T10:11:02;103277.03;;;5.88
66113;BMP280;52893;52.870;5.822;2023-02-28T10:13:33;103271.97;;;6.22
66113;BMP280;52893;52.870;5.822;2023-02-28T10:16:05;103272.13;;;6.73
66113;BMP280;52893;52.870;5.822;2023-02-28T10:18:41;103287.91;;;7.11
66113;BMP280;52893;52.870;5.822;2023-02-28T10:21:17;103281.34;;;7.36
66113;BMP280;52893;52.870;5.822;2023-02-28T10:23:47;103280.00;;;7.62
66113;BMP280;52893;52.870;5.822;2023-02-28T10:26:16;103287.28;;;7.73
66113;BMP280;52893;52.870;5.822;2023-02-28T10:28:44;103279.13;;;7.89
66113;BMP280;52893;52.870;5.822;2023-02-28T10:31:18;103285.00;;;8.31
66113;BMP280;52893;52.870;5.822;2023-02-28T10:33:45;103290.13;;;8.44
66113;BMP280;52893;52.870;5.822;2023-02-28T10:36:16;103288.03;;;8.85
66113;BMP280;52893;52.870;5.822;2023-02-28T10:38:45;103287.09;;;9.18
66113;BMP280;52893;52.870;5.822;2023-02-28T10:41:14;103281.97;;;8.83
66113;BMP280;52893;52.870;5.822;2023-02-28T10:43:43;103289.00;;;8.79
66113;BMP280;52893;52.870;5.822;2023-02-28T10:46:14;103280.56;;;8.80
66113;BMP280;52893;52.870;5.822;2023-02-28T10:49:01;103283.72;;;8.72
66113;BMP280;52893;52.870;5.822;2023-02-28T10:51:36;103287.34;;;8.78
66113;BMP280;52893;52.870;5.822;2023-02-28T10:54:04;103282.38;;;8.91
66113;BMP280;52893;52.870;5.822;2023-02-28T10:56:34;103282.63;;;9.12
66113;BMP280;52893;52.870;5.822;2023-02-28T10:59:05;103282.53;;;9.23
66113;BMP280;52893;52.870;5.822;2023-02-28T11:01:49;103276.84;;;9.52
66113;BMP280;52893;52.870;5.822;2023-02-28T11:04:20;103267.44;;;9.96
66113;BMP280;52893;52.870;5.822;2023-02-28T11:07:02;103267.50;;;10.43
66113;BMP280;52893;52.870;5.822;2023-02-28T11:09:33;103263.66;;;10.91
66113;BMP280;52893;52.870;5.822;2023-02-28T11:12:01;103260.75;;;11.23
66113;BMP280;52893;52.870;5.822;2023-02-28T11:14:30;103263.53;;;11.38
66113;BMP280;52893;52.870;5.822;2023-02-28T11:17:12;103263.84;;;11.62
66113;BMP280;52893;52.870;5.822;2023-02-28T11:19:45;103267.13;;;11.84
66113;BMP280;52893;52.870;5.822;2023-02-28T11:22:18;103261.66;;;12.15
66113;BMP280;52893;52.870;5.822;2023-02-28T11:24:49;103263.53;;;12.19
66113;BMP280;52893;52.870;5.822;2023-02-28T11:27:43;103265.19;;;12.20
66113;BMP280;52893;52.870;5.822;2023-02-28T11:30:33;103261.31;;;12.41
66113;BMP280;52893;52.870;5.822;2023-02-28T11:33:07;103266.66;;;12.77
66113;BMP280;52893;52.870;5.822;2023-02-28T11:35:45;103270.66;;;13.04
66113;BMP280;52893;52.870;5.822;2023-02-28T11:38:14;103271.56;;;13.29
66113;BMP280;52893;52.870;5.822;2023-02-28T11:40:47;103264.06;;;13.44
66113;BMP280;52893;52.870;5.822;2023-02-28T11:43:27;103266.88;;;13.73
66113;BMP280;52893;52.870;5.822;2023-02-28T11:46:05;103260.38;;;13.93
66113;BMP280;52893;52.870;5.822;2023-02-28T11:48:41;103269.09;;;14.24
66113;BMP280;52893;52.870;5.822;2023-02-28T11:51:19;103259.22;;;14.46
66113;BMP280;52893;52.870;5.822;2023-02-28T11:54:01;103275.94;;;14.26
66113;BMP280;52893;52.870;5.822;2023-02-28T11:56:32;103264.34;;;14.06
66113;BMP280;52893;52.870;5.822;2023-02-28T11:59:24;103264.81;;;13.55
66113;BMP280;52893;52.870;5.822;2023-02-28T12:02:06;103259.84;;;12.64
66113;BMP280;52893;52.870;5.822;2023-02-28T12:04:50;103257.00;;;11.85
66113;BMP280;52893;52.870;5.822;2023-02-28T12:07:26;103258.28;;;11.22
66113;BMP280;52893;52.870;5.822;2023-02-28T12:10:03;103251.25;;;10.63
66113;BMP280;52893;52.870;5.822;2023-02-28T12:12:38;103248.53;;;10.21
66113;BMP280;52893;52.870;5.822;2023-02-28T12:15:24;103250.63;;;9.77
66113;BMP280;52893;52.870;5.822;2023-02-28T12:18:24;103249.97;;;9.39
66113;BMP280;52893;52.870;5.822;2023-02-28T12:20:59;103252.06;;;9.10
66113;BMP280;52893;52.870;5.822;2023-02-28T12:23:46;103251.19;;;8.82
66113;BMP280;52893;52.870;5.822;2023-02-28T12:26:19;103249.59;;;8.65
66113;BMP280;52893;52.870;5.822;2023-02-28T12:28:53;103235.25;;;8.53
66113;BMP280;52893;52.870;5.822;2023-02-28T12:31:24;103241.31;;;8.38
66113;BMP280;52893;52.870;5.822;2023-02-28T12:33:59;103242.53;;;8.30
66113;BMP280;52893;52.870;5.822;2023-02-28T12:36:28;103234.06;;;8.27
66113;BMP280;52893;52.870;5.822;2023-02-28T12:38:59;103229.34;;;8.22
66113;BMP280;52893;52.870;5.822;2023-02-28T12:41:34;103226.84;;;8.21
66113;BMP280;52893;52.870;5.822;2023-02-28T12:44:07;103231.78;;;8.19
66113;BMP280;52893;52.870;5.822;2023-02-28T12:46:38;103219.47;;;8.16
66113;BMP280;52893;52.870;5.822;2023-02-28T12:49:10;103225.97;;;8.15
66113;BMP280;52893;52.870;5.822;2023-02-28T12:51:39;103226.22;;;8.14
66113;BMP280;52893;52.870;5.822;2023-02-28T12:54:16;103219.94;;;8.13
66113;BMP280;52893;52.870;5.822;2023-02-28T12:56:54;103216.63;;;8.11
66113;BMP280;52893;52.870;5.822;2023-02-28T12:59:26;103207.13;;;8.09
66113;BMP280;52893;52.870;5.822;2023-02-28T13:02:19;103206.19;;;8.03
66113;BMP280;52893;52.870;5.822;2023-02-28T13:05:01;103206.13;;;7.98
66113;BMP280;52893;52.870;5.822;2023-02-28T13:07:58;103201.16;;;7.95
66113;BMP280;52893;52.870;5.822;2023-02-28T13:10:42;103206.69;;;8.00
66113;BMP280;52893;52.870;5.822;2023-02-28T13:13:16;103199.44;;;8.06
66113;BMP280;52893;52.870;5.822;2023-02-28T13:15:58;103197.78;;;8.04
66113;BMP280;52893;52.870;5.822;2023-02-28T13:18:30;103197.03;;;8.09
66113;BMP280;52893;52.870;5.822;2023-02-28T13:20:57;103194.88;;;8.11
66113;BMP280;52893;52.870;5.822;2023-02-28T13:23:39;103191.09;;;8.12
66113;BMP280;52893;52.870;5.822;2023-02-28T13:26:07;103186.31;;;8.19
66113;BMP280;52893;52.870;5.822;2023-02-28T13:29:02;103183.19;;;8.27
66113;BMP280;52893;52.870;5.822;2023-02-28T13:31:31;103184.63;;;8.35
66113;BMP280;52893;52.870;5.822;2023-02-28T13:34:14;103180.91;;;8.41
66113;BMP280;52893;52.870;5.822;2023-02-28T13:36:41;103182.88;;;8.45
66113;BMP280;52893;52.870;5.822;2023-02-28T13:39:46;103175.34;;;8.53
66113;BMP280;52893;52.870;5.822;2023-02-28T13:42:33;103180.78;;;8.53
66113;BMP280;52893;52.870;5.822;2023-02-28T13:45:25;103183.75;;;8.51
66113;BMP280;52893;52.870;5.822;2023-02-28T13:47:54;103181.47;;;8.43
66113;BMP280;52893;52.870;5.822;2023-02-28T13:50:27;103180.66;;;8.42
66113;BMP280;52893;52.870;5.822;2023-02-28T13:55:45;103173.81;;;8.40
66113;BMP280;52893;52.870;5.822;2023-02-28T13:58:27;103172.91;;;8.34
66113;BMP280;52893;52.870;5.822;2023-02-28T14:01:11;103178.84;;;8.31
66113;BMP280;52893;52.870;5.822;2023-02-28T14:03:55;103179.88;;;8.25
66113;BMP280;52893;52.870;5.822;2023-02-28T14:06:26;103178.69;;;8.21
66113;BMP280;52893;52.870;5.822;2023-02-28T14:08:58;103178.41;;;8.18
66113;BMP280;52893;52.870;5.822;2023-02-28T14:11:30;103177.59;;;8.17
66113;BMP280;52893;52.870;5.822;2023-02-28T14:13:57;103177.81;;;8.16
66113;BMP280;52893;52.870;5.822;2023-02-28T14:16:27;103161.75;;;8.14
66113;BMP280;52893;52.870;5.822;2023-02-28T14:19:03;103169.44;;;8.17
66113;BMP280;52893;52.870;5.822;2023-02-28T14:21:39;103170.28;;;8.23
66113;BMP280;52893;52.870;5.822;2023-02-28T14:24:23;103172.28;;;8.27
66113;BMP280;52893;52.870;5.822;2023-02-28T14:27:21;103169.63;;;8.32
66113;BMP280;52893;52.870;5.822;2023-02-28T14:30:03;103168.31;;;8.35
66113;BMP280;52893;52.870;5.822;2023-02-28T14:32:45;103169.13;;;8.35
66113;BMP280;52893;52.870;5.822;2023-02-28T14:35:22;103173.75;;;8.35
66113;BMP280;52893;52.870;5.822;2023-02-28T14:37:53;103176.13;;;8.31